Bayou Goula, Louisiana
Current Conditions -  °F | °C
As of 1:35 PM on Friday 24 Oct 2014 (Local Time) from KL38 Reporting Station
Clear Clear  
Wind Chill: 73°   Ceiling: Unl
Heat Index: 73°   Visibility: 10mi
Dew Point: 45°   Wind: 5mph
Humidity: 37%   Direction: 360°N
Pressure: 30.07"   Gusts: 9mph
Location:  30.21°N, 91.17°W
Report Text: KL38 241835Z AUTO 36004G08KT 10SM CLR 23/07 A3007 RMK AO2 T02280073
Loading
Personal Weather Stations






























Interactive Weather Map
Tropical Storm Tracking
New forecast layout! Learn more

10-Day Weather Forecast

Advertisements
Track Severe Weather on mobile